Flight Track Log - Related Links

Times and Time Zones

All times are in EDT time to prevent confusion due to time zone crossing. See the GGN7228 flight status page for this flight to view local times or setup timezone preferences in your user account.

Time Position Orientation Groundspeed Altitude Reporting Facility
EDT Latitude Longitude Course Direction KTS MPH feet Rate Location/Type
Sun 08:57:00 PM 50.0408 -115.5006 23° Northeast  Level FlightAware Approximate
Sun 08:58:00 PM 50.1040 -115.4616 20° North  Level FlightAware Approximate
Sun 08:58:37 PM 50.0333 -115.5000 21° North 250 288 15,300  Level Vancouver Center
Sun 08:59:00 PM 50.1677 -115.4246 20° North  Level FlightAware Approximate
Sun 08:59:37 PM 50.1000 -115.4500 26° Northeast 260 299 16,100  Level Vancouver Center
Sun 09:00:00 PM 50.2313 -115.3874 20° North  Level FlightAware Approximate
Sun 09:00:37 PM 50.1667 -115.4167 18° North 270 311 16,600  Level Vancouver Center
Sun 09:01:00 PM 50.2860 -115.3484 21° North  Level FlightAware Approximate
Sun 09:01:37 PM 50.2500 -115.3500 27° Northeast 290 334 17,000  Level Vancouver Center
Sun 09:02:00 PM 50.3493 -115.3096 21° North  Level FlightAware Approximate
Sun 09:02:37 PM 50.3333 -115.3167 14° North 300 345 17,000  Level Vancouver Center
Sun 09:03:00 PM 50.4125 -115.2707 21° North  Level FlightAware Approximate
Sun 09:03:37 PM 50.4000 -115.2667 26° Northeast 290 334 17,000  Level Vancouver Center
Sun 09:04:00 PM 50.4758 -115.2316 21° North  Level FlightAware Approximate
Sun 09:04:37 PM 50.4667 -115.2000 32° Northeast 290 334 17,000  Level Vancouver Center
Sun 09:05:37 PM 50.5500 -115.1667 14° North 300 345 17,000 -100 Level Vancouver Center
Sun 09:06:37 PM 50.6333 -115.1000 27° Northeast 290 334 16,800 -550 Descending Vancouver Center
Sun 09:07:37 PM 50.7000 -115.0667 18° North 300 345 15,900 -900 Descending Vancouver Center
Sun 09:08:37 PM 50.7500 -114.9500 56° Northeast 310 357 15,000 -1,000 Descending Vancouver Center
Sun 09:09:37 PM 50.7833 -114.8333 66° East 300 345 13,900 -1,237 Descending Vancouver Center
Sun 09:10:48 PM 50.8167 -114.7500 58° Northeast 280 322 12,300 -1,328 Descending Edmonton Center
Sun 09:11:48 PM 50.8667 -114.6667 46° Northeast 270 311 11,000 -1,300 Descending Edmonton Center
Sun 09:12:48 PM 50.9167 -114.6000 40° Northeast 260 299 9,700 -1,250 Descending Edmonton Center
Sun 09:13:48 PM 50.9667 -114.5500 32° Northeast 240 276 8,500 -850 Descending Edmonton Center
Sun 09:14:48 PM 51.0333 -114.4833 32° Northeast 210 242 8,000 -750 Descending Edmonton Center
Sun 09:15:48 PM 51.0667 -114.4333 43° Northeast 210 242 7,000 -650 Descending Edmonton Center
Sun 09:16:48 PM 51.1167 -114.4000 23° Northeast 200 230 6,700 -250 Descending Edmonton Center
Sun 09:17:48 PM 51.1667 -114.3167 46° Northeast 190 219 6,500 -200 Descending Edmonton Center
Sun 09:18:48 PM 51.1667 -114.2333 90° East 180 207 6,300 -550 Descending Edmonton Center
Sun 09:19:48 PM 51.1333 -114.1833 137° Southeast 170 196 5,400 -900 Descending Edmonton Center
Sun 09:20:48 PM 51.1167 -114.1167 112° Southeast 150 173 4,500 -800 Descending Edmonton Center
Sun 09:21:48 PM 51.1000 -114.0667 118° Southeast 130 150 3,800 -700 Descending Edmonton Center

Login

Don't have an account? Register now (free) for customized features, flight alerts, and more!